Bonaventure, Canada
Current Conditions -  °F | °C
As of 5:00 AM on Thursday 27 Nov 2014 (Local Time) from CZBF Reporting Station
Light Snow Light Snow  
Wind Chill: 16°   Ceiling: 900
Heat Index: 27°   Visibility: 1mi
Dew Point: 25°   Wind: 12mph
Humidity: 93%   Direction: 30°NNE
Pressure: 29.85"   Gusts: NA
Location:  48.05°N, 65.47°W
Report Text: CZBF 271000Z 03010KT 1SM -SN VV009 M03/M04 A2985 RMK SN8 /S07/ SLP110
Loading
Personal Weather Stations






























Interactive Weather Map New forecast layout! Learn more

10-Day Weather Forecast

Advertisements
Track Severe Weather on mobile